sensor_id;sensor_type;location;lat;lon;timestamp;P1;durP1;ratioP1;P2;durP2;ratioP2
1691;SDS011;843;52.054;8.552;2023-07-08T00:01:04;4.80;;;4.30;;
1691;SDS011;843;52.054;8.552;2023-07-08T00:03:30;5.50;;;4.03;;
1691;SDS011;843;52.054;8.552;2023-07-08T00:05:57;5.73;;;4.33;;
1691;SDS011;843;52.054;8.552;2023-07-08T00:08:23;7.17;;;4.40;;
1691;SDS011;843;52.054;8.552;2023-07-08T00:10:51;6.00;;;4.17;;
1691;SDS011;843;52.054;8.552;2023-07-08T00:13:17;4.20;;;3.67;;
1691;SDS011;843;52.054;8.552;2023-07-08T00:15:44;6.17;;;4.60;;
1691;SDS011;843;52.054;8.552;2023-07-08T00:18:11;6.73;;;4.03;;
1691;SDS011;843;52.054;8.552;2023-07-08T00:20:39;8.50;;;4.47;;
1691;SDS011;843;52.054;8.552;2023-07-08T00:23:07;4.73;;;3.83;;
1691;SDS011;843;52.054;8.552;2023-07-08T00:25:34;14.23;;;4.27;;
1691;SDS011;843;52.054;8.552;2023-07-08T00:28:02;6.70;;;4.27;;
1691;SDS011;843;52.054;8.552;2023-07-08T00:30:29;6.00;;;4.33;;
1691;SDS011;843;52.054;8.552;2023-07-08T00:32:56;5.23;;;4.37;;
1691;SDS011;843;52.054;8.552;2023-07-08T00:35:24;4.37;;;3.97;;
1691;SDS011;843;52.054;8.552;2023-07-08T00:37:52;5.20;;;3.90;;
1691;SDS011;843;52.054;8.552;2023-07-08T00:40:19;5.03;;;3.77;;
1691;SDS011;843;52.054;8.552;2023-07-08T00:42:46;6.27;;;4.30;;
1691;SDS011;843;52.054;8.552;2023-07-08T00:45:18;6.13;;;4.40;;
1691;SDS011;843;52.054;8.552;2023-07-08T00:47:44;5.47;;;4.10;;
1691;SDS011;843;52.054;8.552;2023-07-08T00:50:11;5.80;;;3.90;;
1691;SDS011;843;52.054;8.552;2023-07-08T00:52:37;5.23;;;4.40;;
1691;SDS011;843;52.054;8.552;2023-07-08T00:55:04;5.43;;;4.30;;
1691;SDS011;843;52.054;8.552;2023-07-08T00:57:33;6.00;;;4.17;;
1691;SDS011;843;52.054;8.552;2023-07-08T01:00:01;9.13;;;3.97;;
1691;SDS011;843;52.054;8.552;2023-07-08T01:02:31;4.73;;;3.93;;
1691;SDS011;843;52.054;8.552;2023-07-08T01:05:01;6.77;;;3.97;;
1691;SDS011;843;52.054;8.552;2023-07-08T01:07:28;6.13;;;4.07;;
1691;SDS011;843;52.054;8.552;2023-07-08T01:09:59;4.90;;;3.80;;
1691;SDS011;843;52.054;8.552;2023-07-08T01:12:31;5.97;;;4.23;;
1691;SDS011;843;52.054;8.552;2023-07-08T01:14:59;4.40;;;4.00;;
1691;SDS011;843;52.054;8.552;2023-07-08T01:17:27;4.67;;;4.17;;
1691;SDS011;843;52.054;8.552;2023-07-08T01:19:58;5.10;;;3.83;;
1691;SDS011;843;52.054;8.552;2023-07-08T01:22:26;5.60;;;4.40;;
1691;SDS011;843;52.054;8.552;2023-07-08T01:24:57;8.47;;;3.87;;
1691;SDS011;843;52.054;8.552;2023-07-08T01:27:28;5.20;;;3.57;;
1691;SDS011;843;52.054;8.552;2023-07-08T01:29:55;4.40;;;3.70;;
1691;SDS011;843;52.054;8.552;2023-07-08T01:32:22;4.83;;;3.10;;
1691;SDS011;843;52.054;8.552;2023-07-08T01:34:49;5.10;;;4.20;;
1691;SDS011;843;52.054;8.552;2023-07-08T01:37:29;7.03;;;3.80;;
1691;SDS011;843;52.054;8.552;2023-07-08T01:39:55;5.47;;;3.80;;
1691;SDS011;843;52.054;8.552;2023-07-08T01:42:22;4.03;;;3.63;;
1691;SDS011;843;52.054;8.552;2023-07-08T01:44:48;4.10;;;3.37;;
1691;SDS011;843;52.054;8.552;2023-07-08T01:47:15;4.80;;;3.80;;
1691;SDS011;843;52.054;8.552;2023-07-08T01:49:43;4.50;;;3.80;;
1691;SDS011;843;52.054;8.552;2023-07-08T01:52:11;5.13;;;4.20;;
1691;SDS011;843;52.054;8.552;2023-07-08T01:54:40;7.27;;;3.30;;
1691;SDS011;843;52.054;8.552;2023-07-08T01:57:06;5.33;;;3.70;;
1691;SDS011;843;52.054;8.552;2023-07-08T01:59:32;4.30;;;3.40;;
1691;SDS011;843;52.054;8.552;2023-07-08T02:01:59;5.30;;;3.20;;
1691;SDS011;843;52.054;8.552;2023-07-08T02:04:25;3.90;;;3.50;;
1691;SDS011;843;52.054;8.552;2023-07-08T02:06:55;4.23;;;3.00;;
1691;SDS011;843;52.054;8.552;2023-07-08T02:09:22;4.30;;;3.30;;
1691;SDS011;843;52.054;8.552;2023-07-08T02:11:51;4.03;;;3.40;;
1691;SDS011;843;52.054;8.552;2023-07-08T02:14:16;4.20;;;3.80;;
1691;SDS011;843;52.054;8.552;2023-07-08T02:16:43;3.93;;;3.53;;
1691;SDS011;843;52.054;8.552;2023-07-08T02:19:09;3.53;;;3.23;;
1691;SDS011;843;52.054;8.552;2023-07-08T02:21:35;4.37;;;3.50;;
1691;SDS011;843;52.054;8.552;2023-07-08T02:24:02;6.07;;;3.73;;
1691;SDS011;843;52.054;8.552;2023-07-08T02:26:29;4.57;;;3.53;;
1691;SDS011;843;52.054;8.552;2023-07-08T02:28:58;5.23;;;3.53;;
1691;SDS011;843;52.054;8.552;2023-07-08T02:31:25;4.00;;;3.60;;
1691;SDS011;843;52.054;8.552;2023-07-08T02:33:51;4.23;;;3.33;;
1691;SDS011;843;52.054;8.552;2023-07-08T02:36:18;4.67;;;3.60;;
1691;SDS011;843;52.054;8.552;2023-07-08T02:38:44;4.70;;;3.60;;
1691;SDS011;843;52.054;8.552;2023-07-08T02:41:10;5.97;;;4.27;;
1691;SDS011;843;52.054;8.552;2023-07-08T02:43:37;5.90;;;4.07;;
1691;SDS011;843;52.054;8.552;2023-07-08T02:46:05;3.90;;;3.27;;
1691;SDS011;843;52.054;8.552;2023-07-08T02:48:31;4.00;;;3.50;;
1691;SDS011;843;52.054;8.552;2023-07-08T02:50:58;4.47;;;3.70;;
1691;SDS011;843;52.054;8.552;2023-07-08T02:53:24;5.83;;;3.30;;
1691;SDS011;843;52.054;8.552;2023-07-08T02:55:51;3.50;;;3.20;;
1691;SDS011;843;52.054;8.552;2023-07-08T02:58:17;3.87;;;3.20;;
1691;SDS011;843;52.054;8.552;2023-07-08T03:00:43;3.40;;;2.90;;
1691;SDS011;843;52.054;8.552;2023-07-08T03:03:11;4.13;;;3.40;;
1691;SDS011;843;52.054;8.552;2023-07-08T03:05:41;3.63;;;3.30;;
1691;SDS011;843;52.054;8.552;2023-07-08T03:08:07;3.50;;;3.10;;
1691;SDS011;843;52.054;8.552;2023-07-08T03:10:33;5.13;;;3.83;;
1691;SDS011;843;52.054;8.552;2023-07-08T03:13:00;4.23;;;3.60;;
1691;SDS011;843;52.054;8.552;2023-07-08T03:15:26;7.20;;;3.63;;
1691;SDS011;843;52.054;8.552;2023-07-08T03:17:52;4.63;;;3.80;;
1691;SDS011;843;52.054;8.552;2023-07-08T03:20:26;5.70;;;3.60;;
1691;SDS011;843;52.054;8.552;2023-07-08T03:22:52;5.07;;;3.63;;
1691;SDS011;843;52.054;8.552;2023-07-08T03:25:18;4.47;;;3.50;;
1691;SDS011;843;52.054;8.552;2023-07-08T03:27:45;5.83;;;3.27;;
1691;SDS011;843;52.054;8.552;2023-07-08T03:30:11;3.23;;;2.93;;
1691;SDS011;843;52.054;8.552;2023-07-08T03:32:37;4.73;;;3.37;;
1691;SDS011;843;52.054;8.552;2023-07-08T03:35:04;5.43;;;3.47;;
1691;SDS011;843;52.054;8.552;2023-07-08T03:37:32;4.00;;;3.40;;
1691;SDS011;843;52.054;8.552;2023-07-08T03:39:58;4.07;;;3.47;;
1691;SDS011;843;52.054;8.552;2023-07-08T03:42:25;3.67;;;3.37;;
1691;SDS011;843;52.054;8.552;2023-07-08T03:44:51;4.10;;;3.30;;
1691;SDS011;843;52.054;8.552;2023-07-08T03:47:17;3.77;;;2.87;;
1691;SDS011;843;52.054;8.552;2023-07-08T03:49:44;5.37;;;3.50;;
1691;SDS011;843;52.054;8.552;2023-07-08T03:52:12;3.63;;;2.73;;
1691;SDS011;843;52.054;8.552;2023-07-08T03:54:41;4.67;;;3.33;;
1691;SDS011;843;52.054;8.552;2023-07-08T03:57:08;3.87;;;3.23;;
1691;SDS011;843;52.054;8.552;2023-07-08T03:59:34;6.23;;;3.30;;
1691;SDS011;843;52.054;8.552;2023-07-08T04:02:00;3.20;;;2.83;;
1691;SDS011;843;52.054;8.552;2023-07-08T04:04:28;3.80;;;3.40;;
1691;SDS011;843;52.054;8.552;2023-07-08T04:06:54;4.90;;;2.97;;
1691;SDS011;843;52.054;8.552;2023-07-08T04:09:20;3.07;;;2.70;;
1691;SDS011;843;52.054;8.552;2023-07-08T04:11:48;4.07;;;3.20;;
1691;SDS011;843;52.054;8.552;2023-07-08T04:14:15;3.43;;;3.13;;
1691;SDS011;843;52.054;8.552;2023-07-08T04:16:44;4.47;;;3.77;;
1691;SDS011;843;52.054;8.552;2023-07-08T04:19:11;4.00;;;3.30;;
1691;SDS011;843;52.054;8.552;2023-07-08T04:21:39;3.13;;;2.70;;
1691;SDS011;843;52.054;8.552;2023-07-08T04:24:06;4.50;;;2.87;;
1691;SDS011;843;52.054;8.552;2023-07-08T04:26:34;3.97;;;3.17;;
1691;SDS011;843;52.054;8.552;2023-07-08T04:29:02;3.87;;;2.90;;
1691;SDS011;843;52.054;8.552;2023-07-08T04:31:28;5.70;;;3.20;;
1691;SDS011;843;52.054;8.552;2023-07-08T04:33:55;5.57;;;2.87;;
1691;SDS011;843;52.054;8.552;2023-07-08T04:36:21;4.00;;;2.70;;
1691;SDS011;843;52.054;8.552;2023-07-08T04:38:50;3.90;;;2.77;;
1691;SDS011;843;52.054;8.552;2023-07-08T04:41:16;4.03;;;2.87;;
1691;SDS011;843;52.054;8.552;2023-07-08T04:43:43;6.83;;;3.10;;
1691;SDS011;843;52.054;8.552;2023-07-08T04:46:14;4.17;;;2.80;;
1691;SDS011;843;52.054;8.552;2023-07-08T04:48:43;6.87;;;2.60;;
1691;SDS011;843;52.054;8.552;2023-07-08T04:51:10;3.70;;;3.10;;
1691;SDS011;843;52.054;8.552;2023-07-08T04:53:37;5.20;;;2.93;;
1691;SDS011;843;52.054;8.552;2023-07-08T04:56:03;2.83;;;2.30;;
1691;SDS011;843;52.054;8.552;2023-07-08T04:58:30;5.70;;;3.10;;
1691;SDS011;843;52.054;8.552;2023-07-08T05:00:56;3.20;;;2.33;;
1691;SDS011;843;52.054;8.552;2023-07-08T05:03:24;5.83;;;3.20;;
1691;SDS011;843;52.054;8.552;2023-07-08T05:05:50;5.20;;;2.90;;
1691;SDS011;843;52.054;8.552;2023-07-08T05:08:16;5.13;;;2.73;;
1691;SDS011;843;52.054;8.552;2023-07-08T05:10:43;3.50;;;2.77;;
1691;SDS011;843;52.054;8.552;2023-07-08T05:13:09;4.50;;;2.90;;
1691;SDS011;843;52.054;8.552;2023-07-08T05:15:36;3.10;;;2.80;;
1691;SDS011;843;52.054;8.552;2023-07-08T05:18:02;3.37;;;2.43;;
1691;SDS011;843;52.054;8.552;2023-07-08T05:20:30;3.53;;;3.23;;
1691;SDS011;843;52.054;8.552;2023-07-08T05:22:59;3.40;;;2.50;;
1691;SDS011;843;52.054;8.552;2023-07-08T05:25:26;4.40;;;2.63;;
1691;SDS011;843;52.054;8.552;2023-07-08T05:27:52;3.57;;;2.97;;
1691;SDS011;843;52.054;8.552;2023-07-08T05:30:19;4.50;;;3.10;;
1691;SDS011;843;52.054;8.552;2023-07-08T05:32:46;5.03;;;3.27;;
1691;SDS011;843;52.054;8.552;2023-07-08T05:35:12;3.80;;;2.93;;
1691;SDS011;843;52.054;8.552;2023-07-08T05:37:40;3.83;;;2.47;;
1691;SDS011;843;52.054;8.552;2023-07-08T05:40:09;5.30;;;2.67;;
1691;SDS011;843;52.054;8.552;2023-07-08T05:42:36;4.23;;;2.83;;
1691;SDS011;843;52.054;8.552;2023-07-08T05:45:05;3.73;;;2.73;;
1691;SDS011;843;52.054;8.552;2023-07-08T05:47:32;3.67;;;3.30;;
1691;SDS011;843;52.054;8.552;2023-07-08T05:49:58;5.10;;;2.77;;
1691;SDS011;843;52.054;8.552;2023-07-08T05:52:25;4.00;;;2.60;;
1691;SDS011;843;52.054;8.552;2023-07-08T05:54:53;3.60;;;3.00;;
1691;SDS011;843;52.054;8.552;2023-07-08T05:57:20;5.90;;;2.93;;
1691;SDS011;843;52.054;8.552;2023-07-08T05:59:48;3.27;;;2.70;;
1691;SDS011;843;52.054;8.552;2023-07-08T06:02:16;4.07;;;3.07;;
1691;SDS011;843;52.054;8.552;2023-07-08T06:04:44;3.90;;;2.57;;
1691;SDS011;843;52.054;8.552;2023-07-08T06:07:11;3.73;;;2.60;;
1691;SDS011;843;52.054;8.552;2023-07-08T06:09:37;5.93;;;3.10;;
1691;SDS011;843;52.054;8.552;2023-07-08T06:12:05;5.50;;;3.00;;
1691;SDS011;843;52.054;8.552;2023-07-08T06:14:31;5.40;;;2.97;;
1691;SDS011;843;52.054;8.552;2023-07-08T06:16:58;3.93;;;3.10;;
1691;SDS011;843;52.054;8.552;2023-07-08T06:19:24;3.97;;;3.00;;
1691;SDS011;843;52.054;8.552;2023-07-08T06:21:51;3.20;;;2.70;;
1691;SDS011;843;52.054;8.552;2023-07-08T06:24:17;4.10;;;2.83;;
1691;SDS011;843;52.054;8.552;2023-07-08T06:26:44;4.43;;;2.80;;
1691;SDS011;843;52.054;8.552;2023-07-08T06:29:11;5.90;;;2.83;;
1691;SDS011;843;52.054;8.552;2023-07-08T06:31:38;4.77;;;2.93;;
1691;SDS011;843;52.054;8.552;2023-07-08T06:34:04;6.53;;;2.83;;
1691;SDS011;843;52.054;8.552;2023-07-08T06:36:30;4.73;;;3.10;;
1691;SDS011;843;52.054;8.552;2023-07-08T06:38:57;3.13;;;2.83;;
1691;SDS011;843;52.054;8.552;2023-07-08T06:41:23;7.83;;;2.70;;
1691;SDS011;843;52.054;8.552;2023-07-08T06:43:50;4.27;;;2.63;;
1691;SDS011;843;52.054;8.552;2023-07-08T06:46:18;3.60;;;2.70;;
1691;SDS011;843;52.054;8.552;2023-07-08T06:48:44;3.43;;;2.70;;
1691;SDS011;843;52.054;8.552;2023-07-08T06:51:11;6.27;;;3.13;;
1691;SDS011;843;52.054;8.552;2023-07-08T06:53:37;4.00;;;3.20;;
1691;SDS011;843;52.054;8.552;2023-07-08T06:56:04;4.23;;;2.90;;
1691;SDS011;843;52.054;8.552;2023-07-08T06:58:30;4.10;;;2.60;;
1691;SDS011;843;52.054;8.552;2023-07-08T07:00:56;4.77;;;2.60;;
1691;SDS011;843;52.054;8.552;2023-07-08T07:03:24;4.80;;;2.50;;
1691;SDS011;843;52.054;8.552;2023-07-08T07:05:51;5.40;;;2.90;;
1691;SDS011;843;52.054;8.552;2023-07-08T07:08:17;5.10;;;2.90;;
1691;SDS011;843;52.054;8.552;2023-07-08T07:10:43;5.40;;;3.10;;
1691;SDS011;843;52.054;8.552;2023-07-08T07:13:10;4.40;;;2.80;;
1691;SDS011;843;52.054;8.552;2023-07-08T07:15:36;3.00;;;2.67;;
1691;SDS011;843;52.054;8.552;2023-07-08T07:18:03;2.80;;;2.10;;
1691;SDS011;843;52.054;8.552;2023-07-08T07:20:31;4.93;;;3.20;;
1691;SDS011;843;52.054;8.552;2023-07-08T07:22:57;4.20;;;3.00;;
1691;SDS011;843;52.054;8.552;2023-07-08T07:25:23;5.67;;;3.07;;
1691;SDS011;843;52.054;8.552;2023-07-08T07:27:50;6.13;;;2.70;;
1691;SDS011;843;52.054;8.552;2023-07-08T07:30:16;3.63;;;2.70;;
1691;SDS011;843;52.054;8.552;2023-07-08T07:32:43;5.27;;;3.10;;
1691;SDS011;843;52.054;8.552;2023-07-08T07:35:09;3.13;;;2.47;;
1691;SDS011;843;52.054;8.552;2023-07-08T07:37:39;4.20;;;2.93;;
1691;SDS011;843;52.054;8.552;2023-07-08T07:40:06;4.43;;;3.00;;
1691;SDS011;843;52.054;8.552;2023-07-08T07:42:37;3.30;;;3.00;;
1691;SDS011;843;52.054;8.552;2023-07-08T07:45:07;3.10;;;2.70;;
1691;SDS011;843;52.054;8.552;2023-07-08T07:47:33;5.53;;;3.03;;
1691;SDS011;843;52.054;8.552;2023-07-08T07:50:00;7.70;;;3.63;;
1691;SDS011;843;52.054;8.552;2023-07-08T07:52:27;6.93;;;2.90;;
1691;SDS011;843;52.054;8.552;2023-07-08T07:54:55;4.77;;;2.90;;
1691;SDS011;843;52.054;8.552;2023-07-08T07:57:21;4.10;;;2.80;;
1691;SDS011;843;52.054;8.552;2023-07-08T07:59:48;4.00;;;3.10;;
1691;SDS011;843;52.054;8.552;2023-07-08T08:02:15;2.90;;;2.63;;
1691;SDS011;843;52.054;8.552;2023-07-08T08:04:41;2.83;;;2.50;;
1691;SDS011;843;52.054;8.552;2023-07-08T08:07:07;3.73;;;2.97;;
1691;SDS011;843;52.054;8.552;2023-07-08T08:09:35;3.33;;;2.70;;
1691;SDS011;843;52.054;8.552;2023-07-08T08:12:03;8.50;;;2.77;;
1691;SDS011;843;52.054;8.552;2023-07-08T08:14:29;3.40;;;3.07;;
1691;SDS011;843;52.054;8.552;2023-07-08T08:16:56;3.70;;;3.27;;
1691;SDS011;843;52.054;8.552;2023-07-08T08:19:22;5.20;;;3.13;;
1691;SDS011;843;52.054;8.552;2023-07-08T08:21:49;4.40;;;2.90;;
1691;SDS011;843;52.054;8.552;2023-07-08T08:24:15;4.27;;;3.23;;
1691;SDS011;843;52.054;8.552;2023-07-08T08:26:41;6.40;;;3.20;;
1691;SDS011;843;52.054;8.552;2023-07-08T08:29:09;3.30;;;3.00;;
1691;SDS011;843;52.054;8.552;2023-07-08T08:31:35;3.13;;;2.33;;
1691;SDS011;843;52.054;8.552;2023-07-08T08:34:02;4.30;;;2.90;;
1691;SDS011;843;52.054;8.552;2023-07-08T08:36:28;4.23;;;2.77;;
1691;SDS011;843;52.054;8.552;2023-07-08T08:38:54;3.30;;;3.00;;
1691;SDS011;843;52.054;8.552;2023-07-08T08:41:24;5.17;;;3.20;;
1691;SDS011;843;52.054;8.552;2023-07-08T08:43:53;4.03;;;2.80;;
1691;SDS011;843;52.054;8.552;2023-07-08T08:46:23;3.60;;;3.17;;
1691;SDS011;843;52.054;8.552;2023-07-08T08:48:54;5.43;;;3.70;;
1691;SDS011;843;52.054;8.552;2023-07-08T08:51:22;3.70;;;3.17;;
1691;SDS011;843;52.054;8.552;2023-07-08T08:53:50;7.20;;;3.00;;
1691;SDS011;843;52.054;8.552;2023-07-08T08:56:20;3.00;;;2.70;;
1691;SDS011;843;52.054;8.552;2023-07-08T08:58:48;5.17;;;3.33;;
1691;SDS011;843;52.054;8.552;2023-07-08T09:01:17;4.10;;;3.23;;
1691;SDS011;843;52.054;8.552;2023-07-08T09:03:47;4.30;;;3.00;;
1691;SDS011;843;52.054;8.552;2023-07-08T09:06:16;3.60;;;3.30;;
1691;SDS011;843;52.054;8.552;2023-07-08T09:08:43;5.23;;;2.97;;
1691;SDS011;843;52.054;8.552;2023-07-08T09:11:12;5.27;;;3.67;;
1691;SDS011;843;52.054;8.552;2023-07-08T09:13:40;5.43;;;3.00;;
1691;SDS011;843;52.054;8.552;2023-07-08T09:19:15;4.70;;;3.90;;
1691;SDS011;843;52.054;8.552;2023-07-08T09:21:45;6.53;;;3.30;;
1691;SDS011;843;52.054;8.552;2023-07-08T09:24:15;4.00;;;3.60;;
1691;SDS011;843;52.054;8.552;2023-07-08T09:26:44;5.90;;;3.47;;
1691;SDS011;843;52.054;8.552;2023-07-08T09:29:11;4.90;;;3.63;;
1691;SDS011;843;52.054;8.552;2023-07-08T09:31:38;3.63;;;3.13;;
1691;SDS011;843;52.054;8.552;2023-07-08T09:34:06;4.20;;;3.17;;
1691;SDS011;843;52.054;8.552;2023-07-08T09:36:38;3.60;;;3.10;;
1691;SDS011;843;52.054;8.552;2023-07-08T09:39:05;3.53;;;3.23;;
1691;SDS011;843;52.054;8.552;2023-07-08T09:41:35;3.97;;;3.37;;
1691;SDS011;843;52.054;8.552;2023-07-08T09:44:03;6.43;;;3.50;;
1691;SDS011;843;52.054;8.552;2023-07-08T09:46:30;4.30;;;3.33;;
1691;SDS011;843;52.054;8.552;2023-07-08T09:49:04;3.60;;;3.30;;
1691;SDS011;843;52.054;8.552;2023-07-08T09:51:36;4.37;;;2.90;;
1691;SDS011;843;52.054;8.552;2023-07-08T09:54:02;5.30;;;3.87;;
1691;SDS011;843;52.054;8.552;2023-07-08T09:56:29;5.03;;;3.27;;
1691;SDS011;843;52.054;8.552;2023-07-08T09:58:56;4.67;;;3.43;;
1691;SDS011;843;52.054;8.552;2023-07-08T10:01:25;4.10;;;3.70;;
1691;SDS011;843;52.054;8.552;2023-07-08T10:03:57;4.33;;;3.03;;
1691;SDS011;843;52.054;8.552;2023-07-08T10:06:24;4.43;;;4.00;;
1691;SDS011;843;52.054;8.552;2023-07-08T10:08:53;7.73;;;4.27;;
1691;SDS011;843;52.054;8.552;2023-07-08T10:11:22;7.03;;;3.23;;
1691;SDS011;843;52.054;8.552;2023-07-08T10:13:50;5.50;;;3.70;;
1691;SDS011;843;52.054;8.552;2023-07-08T10:16:20;5.70;;;4.13;;
1691;SDS011;843;52.054;8.552;2023-07-08T10:18:47;4.13;;;3.73;;
1691;SDS011;843;52.054;8.552;2023-07-08T10:21:15;4.80;;;3.77;;
1691;SDS011;843;52.054;8.552;2023-07-08T10:23:48;7.90;;;4.20;;
1691;SDS011;843;52.054;8.552;2023-07-08T10:26:22;4.63;;;3.43;;
1691;SDS011;843;52.054;8.552;2023-07-08T10:28:53;6.50;;;3.90;;
1691;SDS011;843;52.054;8.552;2023-07-08T10:31:25;4.73;;;3.57;;
1691;SDS011;843;52.054;8.552;2023-07-08T10:33:59;3.93;;;3.53;;
1691;SDS011;843;52.054;8.552;2023-07-08T10:36:41;7.03;;;3.97;;
1691;SDS011;843;52.054;8.552;2023-07-08T10:39:19;3.43;;;3.10;;
1691;SDS011;843;52.054;8.552;2023-07-08T10:41:50;4.70;;;3.47;;
1691;SDS011;843;52.054;8.552;2023-07-08T10:44:21;3.73;;;3.43;;
1691;SDS011;843;52.054;8.552;2023-07-08T10:46:54;5.57;;;3.80;;
1691;SDS011;843;52.054;8.552;2023-07-08T10:49:28;4.40;;;3.50;;
1691;SDS011;843;52.054;8.552;2023-07-08T10:52:02;4.27;;;3.80;;
1691;SDS011;843;52.054;8.552;2023-07-08T10:54:37;3.80;;;3.47;;
1691;SDS011;843;52.054;8.552;2023-07-08T10:57:12;4.33;;;3.83;;
1691;SDS011;843;52.054;8.552;2023-07-08T10:59:43;4.40;;;3.73;;
1691;SDS011;843;52.054;8.552;2023-07-08T11:02:16;7.67;;;3.60;;
1691;SDS011;843;52.054;8.552;2023-07-08T11:04:47;4.07;;;3.67;;
1691;SDS011;843;52.054;8.552;2023-07-08T11:07:16;5.33;;;3.93;;
1691;SDS011;843;52.054;8.552;2023-07-08T11:09:44;5.00;;;4.50;;
1691;SDS011;843;52.054;8.552;2023-07-08T11:12:17;6.80;;;4.30;;
1691;SDS011;843;52.054;8.552;2023-07-08T11:14:48;5.23;;;4.73;;
1691;SDS011;843;52.054;8.552;2023-07-08T11:17:16;4.70;;;4.30;;
1691;SDS011;843;52.054;8.552;2023-07-08T11:19:45;4.77;;;4.27;;
1691;SDS011;843;52.054;8.552;2023-07-08T11:22:14;7.00;;;4.60;;
1691;SDS011;843;52.054;8.552;2023-07-08T11:24:43;8.60;;;4.20;;
1691;SDS011;843;52.054;8.552;2023-07-08T11:27:12;6.37;;;4.20;;
1691;SDS011;843;52.054;8.552;2023-07-08T11:29:46;4.97;;;4.47;;
1691;SDS011;843;52.054;8.552;2023-07-08T11:32:15;5.83;;;4.87;;
1691;SDS011;843;52.054;8.552;2023-07-08T11:34:42;5.67;;;4.70;;
1691;SDS011;843;52.054;8.552;2023-07-08T11:37:10;4.90;;;4.33;;
1691;SDS011;843;52.054;8.552;2023-07-08T11:39:39;9.13;;;4.77;;
1691;SDS011;843;52.054;8.552;2023-07-08T11:42:11;5.53;;;4.60;;
1691;SDS011;843;52.054;8.552;2023-07-08T11:44:41;5.90;;;4.83;;
1691;SDS011;843;52.054;8.552;2023-07-08T11:47:11;5.50;;;4.40;;
1691;SDS011;843;52.054;8.552;2023-07-08T11:49:40;5.70;;;5.10;;
1691;SDS011;843;52.054;8.552;2023-07-08T11:52:08;6.07;;;4.47;;
1691;SDS011;843;52.054;8.552;2023-07-08T11:54:39;6.43;;;5.40;;
1691;SDS011;843;52.054;8.552;2023-07-08T11:57:14;6.90;;;4.93;;
1691;SDS011;843;52.054;8.552;2023-07-08T11:59:42;5.40;;;4.30;;
1691;SDS011;843;52.054;8.552;2023-07-08T12:02:13;5.80;;;4.70;;
1691;SDS011;843;52.054;8.552;2023-07-08T12:04:54;5.40;;;4.63;;
1691;SDS011;843;52.054;8.552;2023-07-08T12:07:29;8.10;;;4.93;;
1691;SDS011;843;52.054;8.552;2023-07-08T12:09:57;4.83;;;4.30;;
1691;SDS011;843;52.054;8.552;2023-07-08T12:12:25;5.03;;;4.30;;
1691;SDS011;843;52.054;8.552;2023-07-08T12:14:58;5.90;;;4.73;;
1691;SDS011;843;52.054;8.552;2023-07-08T12:17:27;4.83;;;4.43;;
1691;SDS011;843;52.054;8.552;2023-07-08T12:19:54;5.43;;;4.93;;
1691;SDS011;843;52.054;8.552;2023-07-08T12:22:24;6.10;;;4.50;;
1691;SDS011;843;52.054;8.552;2023-07-08T12:24:50;5.20;;;4.70;;
1691;SDS011;843;52.054;8.552;2023-07-08T12:27:16;6.43;;;4.70;;
1691;SDS011;843;52.054;8.552;2023-07-08T12:29:43;5.97;;;5.10;;
1691;SDS011;843;52.054;8.552;2023-07-08T12:32:11;7.63;;;5.17;;
1691;SDS011;843;52.054;8.552;2023-07-08T12:34:39;6.03;;;5.00;;
1691;SDS011;843;52.054;8.552;2023-07-08T12:37:08;6.50;;;5.33;;
1691;SDS011;843;52.054;8.552;2023-07-08T12:39:35;5.77;;;5.03;;
1691;SDS011;843;52.054;8.552;2023-07-08T12:42:01;7.23;;;5.23;;
1691;SDS011;843;52.054;8.552;2023-07-08T12:44:29;12.43;;;5.47;;
1691;SDS011;843;52.054;8.552;2023-07-08T12:46:56;5.47;;;4.97;;
1691;SDS011;843;52.054;8.552;2023-07-08T12:49:22;5.43;;;4.50;;
1691;SDS011;843;52.054;8.552;2023-07-08T12:51:53;6.97;;;5.23;;
1691;SDS011;843;52.054;8.552;2023-07-08T12:54:20;6.53;;;5.30;;
1691;SDS011;843;52.054;8.552;2023-07-08T12:56:47;5.50;;;4.60;;
1691;SDS011;843;52.054;8.552;2023-07-08T12:59:14;5.77;;;5.17;;
1691;SDS011;843;52.054;8.552;2023-07-08T13:01:43;6.90;;;4.83;;
1691;SDS011;843;52.054;8.552;2023-07-08T13:04:11;6.27;;;4.70;;
1691;SDS011;843;52.054;8.552;2023-07-08T13:06:38;6.20;;;4.90;;
1691;SDS011;843;52.054;8.552;2023-07-08T13:09:11;5.70;;;5.20;;
1691;SDS011;843;52.054;8.552;2023-07-08T13:11:39;6.20;;;4.87;;
1691;SDS011;843;52.054;8.552;2023-07-08T13:14:07;5.43;;;4.70;;
1691;SDS011;843;52.054;8.552;2023-07-08T13:16:34;5.63;;;4.83;;
1691;SDS011;843;52.054;8.552;2023-07-08T13:19:01;9.20;;;4.87;;
1691;SDS011;843;52.054;8.552;2023-07-08T13:21:27;8.10;;;5.53;;
1691;SDS011;843;52.054;8.552;2023-07-08T13:23:55;8.53;;;5.93;;
1691;SDS011;843;52.054;8.552;2023-07-08T13:26:25;11.00;;;4.47;;
1691;SDS011;843;52.054;8.552;2023-07-08T13:28:58;4.70;;;4.30;;
1691;SDS011;843;52.054;8.552;2023-07-08T13:31:25;8.17;;;4.93;;
1691;SDS011;843;52.054;8.552;2023-07-08T13:33:57;7.20;;;4.53;;
1691;SDS011;843;52.054;8.552;2023-07-08T13:36:24;6.20;;;4.57;;
1691;SDS011;843;52.054;8.552;2023-07-08T13:38:53;6.10;;;4.33;;
1691;SDS011;843;52.054;8.552;2023-07-08T13:41:20;8.57;;;4.67;;
1691;SDS011;843;52.054;8.552;2023-07-08T13:43:49;7.10;;;5.17;;
1691;SDS011;843;52.054;8.552;2023-07-08T13:46:28;5.10;;;4.60;;
1691;SDS011;843;52.054;8.552;2023-07-08T13:48:55;5.60;;;5.07;;
1691;SDS011;843;52.054;8.552;2023-07-08T13:51:22;5.50;;;5.00;;
1691;SDS011;843;52.054;8.552;2023-07-08T13:53:50;5.20;;;4.70;;
1691;SDS011;843;52.054;8.552;2023-07-08T13:56:20;6.23;;;5.30;;
1691;SDS011;843;52.054;8.552;2023-07-08T13:58:47;6.23;;;4.93;;
1691;SDS011;843;52.054;8.552;2023-07-08T14:01:16;5.93;;;4.80;;
1691;SDS011;843;52.054;8.552;2023-07-08T14:03:43;5.30;;;4.80;;
1691;SDS011;843;52.054;8.552;2023-07-08T14:06:12;5.07;;;4.50;;
1691;SDS011;843;52.054;8.552;2023-07-08T14:08:39;5.03;;;4.53;;
1691;SDS011;843;52.054;8.552;2023-07-08T14:11:05;5.93;;;5.20;;
1691;SDS011;843;52.054;8.552;2023-07-08T14:13:32;6.20;;;5.00;;
1691;SDS011;843;52.054;8.552;2023-07-08T14:15:59;5.80;;;5.17;;
1691;SDS011;843;52.054;8.552;2023-07-08T14:18:27;6.23;;;5.07;;
1691;SDS011;843;52.054;8.552;2023-07-08T14:20:53;5.67;;;4.57;;
1691;SDS011;843;52.054;8.552;2023-07-08T14:23:20;5.30;;;4.73;;
1691;SDS011;843;52.054;8.552;2023-07-08T14:25:46;6.30;;;5.60;;
1691;SDS011;843;52.054;8.552;2023-07-08T14:28:13;7.50;;;5.57;;
1691;SDS011;843;52.054;8.552;2023-07-08T14:30:41;5.70;;;5.10;;
1691;SDS011;843;52.054;8.552;2023-07-08T14:33:08;9.77;;;5.70;;
1691;SDS011;843;52.054;8.552;2023-07-08T14:35:36;5.27;;;4.77;;
1691;SDS011;843;52.054;8.552;2023-07-08T14:38:02;6.90;;;4.97;;
1691;SDS011;843;52.054;8.552;2023-07-08T14:40:32;5.60;;;5.10;;
1691;SDS011;843;52.054;8.552;2023-07-08T14:43:00;5.37;;;4.87;;
1691;SDS011;843;52.054;8.552;2023-07-08T14:45:28;7.77;;;4.70;;
1691;SDS011;843;52.054;8.552;2023-07-08T14:47:55;6.37;;;5.17;;
1691;SDS011;843;52.054;8.552;2023-07-08T14:50:21;6.73;;;4.60;;
1691;SDS011;843;52.054;8.552;2023-07-08T14:52:51;6.80;;;5.53;;
1691;SDS011;843;52.054;8.552;2023-07-08T14:55:18;5.10;;;4.60;;
1691;SDS011;843;52.054;8.552;2023-07-08T14:57:45;5.97;;;4.87;;
1691;SDS011;843;52.054;8.552;2023-07-08T15:00:13;5.80;;;5.10;;
1691;SDS011;843;52.054;8.552;2023-07-08T15:02:40;8.30;;;4.83;;
1691;SDS011;843;52.054;8.552;2023-07-08T15:05:09;5.20;;;4.67;;
1691;SDS011;843;52.054;8.552;2023-07-08T15:07:37;5.47;;;4.97;;
1691;SDS011;843;52.054;8.552;2023-07-08T15:10:07;7.17;;;4.80;;
1691;SDS011;843;52.054;8.552;2023-07-08T15:12:34;4.83;;;4.40;;
1691;SDS011;843;52.054;8.552;2023-07-08T15:15:00;5.33;;;4.80;;
1691;SDS011;843;52.054;8.552;2023-07-08T15:17:28;5.60;;;4.73;;
1691;SDS011;843;52.054;8.552;2023-07-08T15:19:54;5.33;;;4.83;;
1691;SDS011;843;52.054;8.552;2023-07-08T15:22:21;5.77;;;4.90;;
1691;SDS011;843;52.054;8.552;2023-07-08T15:24:47;7.03;;;5.10;;
1691;SDS011;843;52.054;8.552;2023-07-08T15:27:20;8.50;;;5.40;;
1691;SDS011;843;52.054;8.552;2023-07-08T15:29:48;6.17;;;5.20;;
1691;SDS011;843;52.054;8.552;2023-07-08T15:32:16;5.67;;;4.87;;
1691;SDS011;843;52.054;8.552;2023-07-08T15:34:45;7.17;;;4.83;;
1691;SDS011;843;52.054;8.552;2023-07-08T15:37:12;6.73;;;4.60;;